Time;durP1;ratioP1;P1;durP2;ratioP2;P2;SDS_P1;SDS_P2;PMS_P1;PMS_P2;Temp;Humidity;BMP_temperature;BMP_pressure;BME280_temperature;BME280_humidity;BME280_pressure;Samples;Min_cycle;Max_cycle;Signal;HPM_P1;HPM_P2
2022/05/14 00:00:59;;;;;;;31.90;8.60;;;14.40;35.90;;;;;;5028840;28;21101;-59
2022/05/14 00:03:26;;;;;;;34.70;8.40;;;14.30;36.00;;;;;;5028913;28;20447;-59
2022/05/14 00:05:54;;;;;;;31.00;8.70;;;14.40;36.20;;;;;;5028082;28;21028;-59
2022/05/14 00:08:23;;;;;;;32.47;8.13;;;14.30;36.20;;;;;;5023227;28;20867;-59
2022/05/14 00:13:35;;;;;;;31.30;8.80;;;14.20;36.20;;;;;;5029905;28;20469;-58
2022/05/14 00:16:02;;;;;;;35.60;8.63;;;14.20;36.30;;;;;;5023428;28;20462;-59
2022/05/14 00:18:29;;;;;;;36.83;8.87;;;14.20;36.40;;;;;;5022432;28;20479;-59
2022/05/14 00:20:56;;;;;;;30.57;10.30;;;14.20;36.40;;;;;;5023090;28;20467;-59
2022/05/14 00:23:25;;;;;;;36.27;8.43;;;14.20;36.50;;;;;;5029041;28;20454;-60
2022/05/14 00:25:52;;;;;;;32.97;8.83;;;14.20;36.70;;;;;;5029812;28;20447;-59
2022/05/14 00:28:19;;;;;;;31.07;8.83;;;14.20;36.80;;;;;;5027992;28;21256;-59
2022/05/14 00:30:45;;;;;;;33.00;10.03;;;14.20;37.00;;;;;;5025081;28;20462;-60
2022/05/14 00:33:12;;;;;;;33.47;9.33;;;14.20;37.00;;;;;;5026889;28;20455;-59
2022/05/14 00:35:40;;;;;;;36.53;9.17;;;14.10;37.30;;;;;;5028003;28;20461;-59
2022/05/14 00:38:08;;;;;;;35.07;9.60;;;14.10;37.10;;;;;;5029433;28;20491;-59
2022/05/14 00:40:39;;;;;;;31.27;8.40;;;14.10;37.40;;;;;;5028394;28;20459;-59
2022/05/14 00:43:06;;;;;;;30.80;9.10;;;14.10;37.50;;;;;;5023664;28;20458;-58
2022/05/14 00:45:35;;;;;;;30.10;8.40;;;14.10;37.50;;;;;;5025568;28;20462;-58
2022/05/14 00:48:03;;;;;;;32.90;8.53;;;14.10;37.60;;;;;;5028408;28;20479;-59
2022/05/14 00:50:37;;;;;;;33.27;9.80;;;14.10;38.20;;;;;;5023473;28;20972;-59
2022/05/14 00:53:13;;;;;;;32.70;9.50;;;14.10;37.70;;;;;;5027952;28;20547;-60
2022/05/14 00:55:44;;;;;;;33.83;10.00;;;14.00;37.90;;;;;;5026847;28;20462;-60
2022/05/14 00:58:15;;;;;;;32.77;8.60;;;14.00;37.90;;;;;;5026767;28;20482;-60
2022/05/14 01:00:41;;;;;;;33.47;10.33;;;14.00;37.90;;;;;;5026464;28;20467;-60
2022/05/14 01:03:08;;;;;;;33.10;9.37;;;13.90;37.90;;;;;;5028195;28;20467;-59
2022/05/14 01:05:35;;;;;;;32.23;9.40;;;13.90;38.00;;;;;;5027900;28;20466;-59
2022/05/14 01:08:04;;;;;;;32.73;9.23;;;13.90;38.20;;;;;;5028254;28;20479;-59
2022/05/14 01:10:37;;;;;;;32.47;8.63;;;13.90;38.50;;;;;;5028600;28;20459;-59
2022/05/14 01:13:05;;;;;;;32.50;8.17;;;13.80;38.90;;;;;;5026324;28;20470;-59
2022/05/14 01:15:46;;;;;;;32.70;8.20;;;13.70;39.00;;;;;;5027834;28;20524;-59
2022/05/14 01:18:13;;;;;;;31.80;8.13;;;13.60;38.80;;;;;;5023179;28;20482;-59
2022/05/14 01:20:40;;;;;;;32.43;8.30;;;13.60;38.40;;;;;;5028011;28;20454;-59
2022/05/14 01:23:19;;;;;;;33.13;7.43;;;13.60;38.30;;;;;;5027804;28;20964;-59
2022/05/14 01:28:41;;;;;;;34.47;8.33;;;13.60;37.90;;;;;;5027049;28;20641;-60
2022/05/14 01:31:08;;;;;;;30.70;7.17;;;13.50;37.60;;;;;;5027337;28;20470;-60
2022/05/14 01:33:36;;;;;;;32.27;8.77;;;13.50;37.90;;;;;;5025499;28;20455;-61
2022/05/14 01:36:06;;;;;;;31.20;8.50;;;13.50;38.00;;;;;;5028417;28;20482;-61
2022/05/14 01:38:33;;;;;;;32.80;8.90;;;13.40;38.50;;;;;;5028486;28;20497;-60
2022/05/14 01:41:01;;;;;;;34.70;8.37;;;13.40;38.70;;;;;;5022255;28;20868;-60
2022/05/14 01:43:28;;;;;;;32.30;10.27;;;13.40;38.80;;;;;;5024736;28;20493;-60
2022/05/14 01:45:55;;;;;;;32.33;9.50;;;13.40;39.00;;;;;;5026967;28;20458;-60
2022/05/14 01:48:22;;;;;;;32.67;10.43;;;13.40;39.00;;;;;;5027101;28;20473;-60
2022/05/14 01:50:48;;;;;;;33.50;9.03;;;13.40;39.00;;;;;;5026550;28;20859;-60
2022/05/14 01:53:15;;;;;;;31.10;9.37;;;13.40;39.00;;;;;;5027802;28;20459;-60
2022/05/14 01:55:42;;;;;;;34.93;10.13;;;13.40;39.10;;;;;;5025291;28;20463;-60
2022/05/14 02:00:51;;;;;;;35.43;9.30;;;13.40;39.00;;;;;;5017189;28;20479;-59
2022/05/14 02:03:18;;;;;;;32.67;9.00;;;13.40;38.90;;;;;;5024991;28;20466;-60
2022/05/14 02:05:45;;;;;;;33.60;8.80;;;13.50;39.10;;;;;;5026374;28;20459;-60
2022/05/14 02:08:12;;;;;;;34.20;9.40;;;13.40;39.20;;;;;;5028992;28;20471;-61
2022/05/14 02:10:40;;;;;;;31.57;9.40;;;13.40;39.50;;;;;;5030231;28;20542;-59
2022/05/14 02:13:07;;;;;;;32.70;8.50;;;13.40;39.40;;;;;;5030704;28;20458;-60
2022/05/14 02:15:35;;;;;;;32.10;9.10;;;13.50;39.50;;;;;;5029634;28;20458;-60
2022/05/14 02:18:02;;;;;;;34.03;8.80;;;13.50;39.50;;;;;;5031470;28;20482;-60
2022/05/14 02:20:29;;;;;;;31.80;8.63;;;13.40;39.30;;;;;;5027118;28;20462;-60
2022/05/14 02:22:56;;;;;;;34.30;9.77;;;13.40;39.40;;;;;;5026309;28;20952;-60
2022/05/14 02:25:23;;;;;;;32.03;9.20;;;13.40;39.30;;;;;;5025040;28;20463;-61
2022/05/14 02:27:49;;;;;;;33.43;9.60;;;13.40;39.40;;;;;;5023337;28;20475;-60
2022/05/14 02:30:16;;;;;;;30.37;7.50;;;13.40;39.30;;;;;;5026467;28;20493;-61
2022/05/14 02:32:45;;;;;;;32.50;9.30;;;13.40;39.20;;;;;;5027069;28;20976;-58
2022/05/14 02:35:12;;;;;;;32.80;8.97;;;13.30;39.30;;;;;;5021049;28;20505;-59
2022/05/14 02:37:39;;;;;;;34.33;10.30;;;13.30;39.40;;;;;;5024590;28;20496;-59
2022/05/14 02:40:07;;;;;;;35.03;8.40;;;13.30;39.30;;;;;;5026113;28;21166;-58
2022/05/14 02:42:33;;;;;;;32.70;8.83;;;13.30;39.50;;;;;;5027084;28;20455;-57
2022/05/14 02:45:00;;;;;;;36.40;9.13;;;13.20;39.60;;;;;;5032493;28;20937;-59
2022/05/14 02:47:27;;;;;;;31.53;8.70;;;13.20;39.70;;;;;;5027934;28;20470;-59
2022/05/14 02:49:55;;;;;;;37.27;8.80;;;13.10;39.70;;;;;;5023704;28;20459;-59
2022/05/14 02:52:23;;;;;;;32.63;8.90;;;13.10;39.50;;;;;;5025695;28;20473;-60
2022/05/14 02:54:50;;;;;;;35.83;8.33;;;13.10;39.50;;;;;;5026315;28;20455;-60
2022/05/14 02:57:17;;;;;;;33.47;9.77;;;13.10;39.50;;;;;;5027159;28;20858;-60
2022/05/14 02:59:44;;;;;;;36.07;9.90;;;13.10;39.50;;;;;;5025356;28;20490;-60
2022/05/14 03:02:11;;;;;;;34.80;9.93;;;13.00;39.40;;;;;;5025602;28;20490;-60
2022/05/14 03:04:40;;;;;;;32.80;9.30;;;13.00;39.40;;;;;;5019206;28;20456;-60
2022/05/14 03:07:10;;;;;;;32.90;9.47;;;13.00;39.20;;;;;;5025863;28;20483;-61
2022/05/14 03:09:38;;;;;;;32.70;9.50;;;12.90;39.30;;;;;;5025192;28;20939;-60
2022/05/14 03:12:06;;;;;;;35.70;10.37;;;12.90;39.40;;;;;;5025565;28;20564;-60
2022/05/14 03:14:33;;;;;;;35.90;9.50;;;12.80;39.60;;;;;;5026408;28;20466;-60
2022/05/14 03:17:00;;;;;;;33.30;8.87;;;12.80;39.60;;;;;;5029316;28;20475;-60
2022/05/14 03:19:27;;;;;;;34.60;9.70;;;12.70;39.60;;;;;;5028755;28;20521;-60
2022/05/14 03:21:54;;;;;;;34.63;8.83;;;12.70;39.70;;;;;;5029108;28;20458;-60
2022/05/14 03:24:22;;;;;;;34.70;10.50;;;12.60;39.60;;;;;;5027299;28;20474;-61
2022/05/14 03:26:49;;;;;;;32.90;9.07;;;12.60;39.50;;;;;;5025926;28;20513;-60
2022/05/14 03:29:16;;;;;;;33.30;10.23;;;12.50;39.40;;;;;;5028295;28;20466;-60
2022/05/14 03:31:43;;;;;;;34.57;9.70;;;12.50;39.50;;;;;;5026446;28;20561;-60
2022/05/14 03:34:11;;;;;;;34.40;10.13;;;12.50;39.80;;;;;;5035208;28;20459;-60
2022/05/14 03:36:39;;;;;;;35.27;9.63;;;12.40;39.70;;;;;;5027832;28;20972;-57
2022/05/14 03:39:05;;;;;;;32.40;9.27;;;12.40;39.70;;;;;;5029587;28;21027;-59
2022/05/14 03:41:34;;;;;;;33.70;10.20;;;12.40;39.60;;;;;;5028372;28;20459;-59
2022/05/14 03:44:02;;;;;;;34.20;9.70;;;12.40;39.80;;;;;;5029699;28;20477;-59
2022/05/14 03:46:29;;;;;;;38.37;10.73;;;12.30;39.90;;;;;;5025124;28;20459;-60
2022/05/14 03:48:55;;;;;;;32.57;10.33;;;12.30;40.10;;;;;;5028944;28;20479;-59
2022/05/14 03:51:22;;;;;;;35.57;9.97;;;12.30;40.20;;;;;;5023622;28;20463;-58
2022/05/14 03:53:49;;;;;;;34.10;10.60;;;12.30;40.10;;;;;;5030502;28;20455;-59
2022/05/14 03:56:16;;;;;;;35.17;11.00;;;12.30;40.20;;;;;;5028628;28;20465;-60
2022/05/14 03:58:44;;;;;;;34.50;10.40;;;12.30;40.50;;;;;;5028631;28;20510;-59
2022/05/14 04:01:11;;;;;;;36.10;12.93;;;12.30;40.50;;;;;;5019555;28;20490;-60
2022/05/14 04:03:38;;;;;;;33.80;10.10;;;12.30;40.80;;;;;;5023962;28;20447;-59
2022/05/14 04:06:06;;;;;;;35.73;10.17;;;12.30;40.80;;;;;;5027309;28;20893;-59
2022/05/14 04:08:33;;;;;;;33.33;10.53;;;12.30;40.80;;;;;;5028251;28;20475;-59
2022/05/14 04:11:00;;;;;;;39.30;11.03;;;12.30;41.00;;;;;;5029890;28;20455;-59
2022/05/14 04:13:27;;;;;;;33.97;10.57;;;12.40;40.70;;;;;;5028061;28;20455;-60
2022/05/14 04:15:55;;;;;;;34.73;10.40;;;12.40;40.90;;;;;;5028226;28;20463;-59
2022/05/14 04:18:24;;;;;;;33.87;10.93;;;12.50;41.00;;;;;;5027239;28;21019;-59
2022/05/14 04:20:53;;;;;;;36.10;11.03;;;12.50;41.40;;;;;;5026871;28;20469;-59
2022/05/14 04:23:20;;;;;;;33.13;9.90;;;12.50;41.50;;;;;;5028222;28;20490;-59
2022/05/14 04:25:49;;;;;;;36.63;10.80;;;12.60;41.50;;;;;;5027833;28;20459;-60
2022/05/14 04:28:16;;;;;;;35.77;10.87;;;12.60;41.40;;;;;;5028186;28;20549;-60
2022/05/14 04:30:43;;;;;;;35.10;12.37;;;12.60;41.70;;;;;;5028337;28;20463;-59
2022/05/14 04:33:12;;;;;;;34.13;10.80;;;12.70;41.70;;;;;;5028388;28;20551;-60
2022/05/14 04:35:39;;;;;;;35.67;11.03;;;12.70;41.80;;;;;;5028396;28;20458;-60
2022/05/14 04:38:06;;;;;;;37.83;11.13;;;12.70;41.90;;;;;;5027796;28;20486;-59
2022/05/14 04:40:33;;;;;;;33.40;10.30;;;12.80;41.60;;;;;;5029348;28;20465;-60
2022/05/14 04:43:00;;;;;;;34.20;10.93;;;12.90;41.70;;;;;;5028563;28;20473;-59
2022/05/14 04:45:29;;;;;;;35.60;10.60;;;13.00;41.50;;;;;;5028520;28;20469;-59
2022/05/14 04:47:56;;;;;;;36.07;11.27;;;13.10;41.50;;;;;;5027936;28;21195;-59
2022/05/14 04:50:24;;;;;;;41.27;12.37;;;13.20;41.20;;;;;;5028057;28;20871;-59
2022/05/14 04:52:51;;;;;;;36.97;10.73;;;13.30;41.60;;;;;;5029371;28;20975;-59
2022/05/14 04:55:17;;;;;;;36.07;10.63;;;13.60;41.20;;;;;;5027629;28;20990;-59
2022/05/14 04:57:44;;;;;;;36.00;9.27;;;14.00;40.90;;;;;;5029009;28;21130;-60
2022/05/14 05:00:13;;;;;;;34.80;9.90;;;14.40;40.10;;;;;;5027655;28;20483;-59
2022/05/14 05:05:26;;;;;;;34.17;8.73;;;15.10;38.60;;;;;;5026075;28;20589;-59
2022/05/14 05:07:52;;;;;;;35.53;9.23;;;16.00;35.40;;;;;;5028983;28;20496;-59
2022/05/14 05:10:19;;;;;;;35.83;8.13;;;16.60;33.30;;;;;;5028130;28;20474;-59
2022/05/14 05:12:46;;;;;;;43.63;8.97;;;17.20;31.50;;;;;;5028232;28;20442;-58
2022/05/14 05:15:13;;;;;;;33.60;8.27;;;17.70;29.20;;;;;;5032209;28;20456;-59
2022/05/14 05:17:41;;;;;;;31.77;7.50;;;18.20;29.90;;;;;;5034564;28;20470;-59
2022/05/14 05:20:09;;;;;;;33.93;8.30;;;18.70;28.60;;;;;;5027990;28;20483;-59
2022/05/14 05:22:38;;;;;;;34.37;8.97;;;19.30;27.60;;;;;;5027170;28;20463;-59
2022/05/14 05:25:07;;;;;;;34.00;7.50;;;20.00;25.10;;;;;;5026151;28;21016;-60
2022/05/14 05:27:34;;;;;;;33.97;7.13;;;20.70;23.40;;;;;;5026649;28;21004;-60
2022/05/14 05:30:00;;;;;;;31.53;7.27;;;21.30;22.20;;;;;;5027542;28;20447;-59
2022/05/14 05:32:27;;;;;;;32.20;6.97;;;21.80;20.10;;;;;;5027479;28;20467;-60
2022/05/14 05:34:54;;;;;;;30.67;7.03;;;22.40;18.20;;;;;;5027466;28;20454;-60
2022/05/14 05:37:21;;;;;;;30.40;5.93;;;22.90;16.60;;;;;;5027441;28;21006;-59
2022/05/14 05:39:49;;;;;;;30.60;5.30;;;23.50;15.50;;;;;;5027404;28;20490;-59
2022/05/14 05:42:15;;;;;;;29.30;5.00;;;24.00;14.30;;;;;;5026912;28;20538;-60
2022/05/14 05:44:42;;;;;;;29.20;5.10;;;24.50;12.20;;;;;;5027649;28;20960;-60
2022/05/14 05:47:09;;;;;;;33.37;5.87;;;24.80;10.60;;;;;;5026170;28;20486;-60
2022/05/14 05:49:39;;;;;;;32.50;5.13;;;25.20;11.80;;;;;;5027183;28;20462;-60
2022/05/14 05:52:06;;;;;;;32.03;5.40;;;25.70;9.70;;;;;;5025972;28;20447;-60
2022/05/14 05:57:19;;;;;;;28.70;4.80;;;26.50;7.70;;;;;;5025829;28;20481;-60
2022/05/14 05:59:47;;;;;;;27.07;4.87;;;27.20;6.40;;;;;;5030187;28;20508;-60
2022/05/14 06:02:13;;;;;;;27.80;5.00;;;27.50;6.10;;;;;;5026330;28;20493;-60
2022/05/14 06:04:40;;;;;;;29.97;5.13;;;28.20;4.60;;;;;;5026714;28;20827;-60
2022/05/14 06:07:07;;;;;;;29.53;4.10;;;28.40;3.90;;;;;;5025966;28;20470;-60
2022/05/14 06:09:34;;;;;;;30.20;5.30;;;28.80;3.70;;;;;;5038979;28;20454;-61
2022/05/14 06:12:01;;;;;;;26.83;4.17;;;29.20;3.30;;;;;;5027506;28;20455;-60
2022/05/14 06:14:29;;;;;;;27.70;4.10;;;29.70;2.50;;;;;;5026528;28;21032;-60
2022/05/14 06:16:56;;;;;;;27.40;3.83;;;30.30;1.80;;;;;;5020395;28;20837;-60
2022/05/14 06:19:23;;;;;;;26.03;3.73;;;30.90;1.00;;;;;;5031610;28;20486;-60
2022/05/14 06:21:49;;;;;;;25.80;3.27;;;31.40;1.00;;;;;;5025361;28;20491;-60
2022/05/14 06:24:16;;;;;;;26.37;3.23;;;31.80;1.00;;;;;;5026646;28;20829;-59
2022/05/14 06:26:43;;;;;;;25.80;3.30;;;32.40;1.00;;;;;;5025978;28;20463;-60
2022/05/14 06:29:10;;;;;;;25.30;2.70;;;32.80;1.00;;;;;;5029560;28;20447;-60
2022/05/14 06:31:38;;;;;;;27.10;3.97;;;33.30;1.00;;;;;;5026490;28;20467;-60
2022/05/14 06:34:05;;;;;;;27.43;3.20;;;33.60;1.00;;;;;;5026053;28;20466;-59
2022/05/14 06:36:33;;;;;;;24.63;2.80;;;34.10;1.00;;;;;;5023140;28;20455;-63
2022/05/14 06:39:00;;;;;;;24.77;3.00;;;34.50;1.00;;;;;;5024644;28;20529;-61
2022/05/14 06:41:27;;;;;;;25.03;3.03;;;35.00;1.00;;;;;;5026243;28;20474;-60
2022/05/14 06:43:53;;;;;;;26.93;3.57;;;35.50;1.00;;;;;;5026346;28;20477;-60
2022/05/14 06:46:20;;;;;;;25.87;3.40;;;35.70;1.00;;;;;;5025161;28;20470;-61
2022/05/14 06:48:48;;;;;;;27.00;3.83;;;35.90;1.00;;;;;;5022094;28;20521;-60
2022/05/14 06:51:19;;;;;;;24.97;3.30;;;36.30;1.00;;;;;;5025997;28;20465;-61
2022/05/14 06:53:47;;;;;;;25.63;3.40;;;36.50;1.00;;;;;;5030726;28;20576;-61
2022/05/14 06:56:15;;;;;;;25.03;3.30;;;36.80;1.00;;;;;;5029897;28;20466;-62
2022/05/14 06:58:44;;;;;;;23.80;3.30;;;37.00;1.00;;;;;;5027860;28;20478;-63
2022/05/14 07:01:11;;;;;;;23.63;3.00;;;37.20;1.00;;;;;;5027631;28;20486;-62
2022/05/14 07:06:41;;;;;;;23.27;3.30;;;37.70;1.00;;;;;;5025861;28;20574;-62
2022/05/14 07:09:11;;;;;;;23.80;3.30;;;38.20;1.00;;;;;;5027000;28;20466;-63
2022/05/14 07:11:40;;;;;;;24.93;2.90;;;38.20;1.00;;;;;;5032846;28;20527;-64
2022/05/14 07:14:07;;;;;;;23.40;2.70;;;38.10;1.00;;;;;;5029342;28;20996;-63
2022/05/14 07:16:34;;;;;;;27.50;3.33;;;38.00;1.00;;;;;;5030130;28;20837;-63
2022/05/14 07:19:01;;;;;;;23.30;2.50;;;38.10;1.00;;;;;;5029343;28;20475;-62
2022/05/14 07:21:29;;;;;;;23.20;2.47;;;38.60;1.00;;;;;;5028796;28;20462;-63
2022/05/14 07:23:56;;;;;;;22.90;2.37;;;39.40;1.00;;;;;;5023513;28;21145;-62
2022/05/14 07:26:23;;;;;;;22.50;2.37;;;39.40;1.00;;;;;;5027228;28;20498;-63
2022/05/14 07:28:49;;;;;;;22.83;2.40;;;39.90;1.00;;;;;;5030769;28;20490;-64
2022/05/14 07:31:16;;;;;;;25.30;2.70;;;40.30;1.00;;;;;;5025450;28;20479;-65
2022/05/14 07:33:43;;;;;;;24.40;2.20;;;40.40;1.00;;;;;;5025657;28;21037;-63
2022/05/14 07:36:14;;;;;;;22.37;2.40;;;40.40;1.00;;;;;;5025203;28;20837;-64
2022/05/14 07:38:43;;;;;;;23.00;2.53;;;40.70;1.00;;;;;;5029117;28;20478;-63
2022/05/14 07:41:11;;;;;;;21.67;1.70;;;41.30;1.00;;;;;;5027662;28;20570;-59
2022/05/14 07:43:40;;;;;;;21.97;1.80;;;41.80;1.00;;;;;;5030771;28;20945;-62
2022/05/14 07:46:12;;;;;;;23.73;2.03;;;42.10;1.00;;;;;;5026542;28;20474;-63
2022/05/14 07:48:40;;;;;;;23.23;2.27;;;42.20;1.00;;;;;;5025655;28;20890;-62
2022/05/14 07:51:10;;;;;;;22.43;2.07;;;42.40;1.00;;;;;;5027488;28;20474;-59
2022/05/14 07:53:37;;;;;;;23.30;2.00;;;42.50;1.00;;;;;;5021972;28;20459;-63
2022/05/14 07:56:08;;;;;;;21.67;2.17;;;42.70;1.00;;;;;;5026170;28;20471;-60
2022/05/14 07:58:36;;;;;;;21.03;1.97;;;42.90;1.00;;;;;;5022320;28;20510;-62
2022/05/14 08:01:04;;;;;;;24.00;2.53;;;43.40;1.00;;;;;;5027121;28;20475;-62
2022/05/14 08:03:30;;;;;;;22.67;2.07;;;43.70;1.00;;;;;;5022688;28;20848;-62
2022/05/14 08:05:58;;;;;;;24.80;1.90;;;43.90;1.00;;;;;;5024952;28;20929;-63
2022/05/14 08:08:25;;;;;;;21.90;1.90;;;43.60;1.00;;;;;;5025787;28;20487;-62
2022/05/14 08:10:53;;;;;;;21.00;1.70;;;43.40;1.00;;;;;;5024740;28;20459;-63
2022/05/14 08:13:23;;;;;;;23.87;2.20;;;43.60;1.00;;;;;;5027554;28;20463;-62
2022/05/14 08:15:51;;;;;;;22.50;1.97;;;43.90;1.00;;;;;;5026846;28;20832;-63
2022/05/14 08:18:18;;;;;;;21.60;1.80;;;44.40;1.00;;;;;;5022887;28;20495;-64
2022/05/14 08:20:47;;;;;;;22.50;2.20;;;45.00;1.00;;;;;;5026310;28;20474;-62
2022/05/14 08:26:00;;;;;;;20.47;1.80;;;46.20;1.00;;;;;;5024137;28;20441;-65
2022/05/14 08:28:29;;;;;;;21.50;2.80;;;46.80;1.00;;;;;;5025000;28;21000;-61
2022/05/14 08:30:56;;;;;;;28.53;4.57;;;46.90;1.00;;;;;;5027202;28;20470;-62
2022/05/14 08:33:23;;;;;;;22.50;2.93;;;47.10;1.00;;;;;;5027767;28;20454;-61
2022/05/14 08:35:50;;;;;;;23.33;2.60;;;47.50;1.00;;;;;;5023692;28;21183;-61
2022/05/14 08:38:18;;;;;;;22.73;2.20;;;48.10;1.00;;;;;;5021410;28;20497;-63
2022/05/14 08:40:52;;;;;;;21.53;2.30;;;48.70;1.00;;;;;;5026315;28;20486;-62
2022/05/14 08:43:22;;;;;;;21.70;2.43;;;49.20;1.00;;;;;;5034786;28;20453;-62
2022/05/14 08:45:50;;;;;;;23.40;2.57;;;49.60;1.00;;;;;;5026310;28;20463;-63
2022/05/14 08:48:22;;;;;;;21.90;3.50;;;49.90;1.00;;;;;;5019867;28;20494;-62
2022/05/14 08:50:55;;;;;;;21.30;2.63;;;50.20;1.00;;;;;;5027406;28;20467;-64
2022/05/14 08:53:24;;;;;;;22.90;3.00;;;50.50;1.00;;;;;;5027949;28;20450;-64
2022/05/14 08:56:27;;;;;;;20.67;2.80;;;50.90;1.00;;;;;;5033050;28;20454;-63
2022/05/14 08:59:04;;;;;;;21.37;2.90;;;51.20;1.00;;;;;;5025321;28;20474;-64
2022/05/14 09:01:36;;;;;;;22.80;2.40;;;51.30;1.00;;;;;;5026007;28;20474;-64
2022/05/14 09:04:03;;;;;;;22.40;2.70;;;51.40;1.00;;;;;;5027828;28;20455;-62
2022/05/14 09:06:30;;;;;;;21.47;2.90;;;51.50;1.00;;;;;;5028504;28;20944;-62
2022/05/14 09:08:57;;;;;;;20.67;2.73;;;51.60;1.00;;;;;;5027218;28;20475;-62
2022/05/14 09:11:27;;;;;;;21.37;3.03;;;51.50;1.00;;;;;;5027516;28;20539;-60
2022/05/14 09:13:56;;;;;;;22.90;3.50;;;51.50;1.00;;;;;;5025245;28;20454;-62
2022/05/14 09:16:28;;;;;;;19.80;2.60;;;51.50;1.00;;;;;;5025833;28;20461;-62
2022/05/14 09:18:56;;;;;;;28.20;6.77;;;51.50;1.00;;;;;;5023162;28;21005;-62
2022/05/14 09:21:25;;;;;;;23.23;3.70;;;51.70;1.00;;;;;;5026096;28;20844;-62
2022/05/14 09:23:56;;;;;;;19.77;2.27;;;51.60;1.00;;;;;;5029631;28;20455;-61
2022/05/14 09:26:29;;;;;;;22.47;3.43;;;51.20;1.00;;;;;;5027265;28;20455;-62
2022/05/14 09:28:58;;;;;;;22.67;3.37;;;50.90;1.00;;;;;;5024781;28;20478;-63
2022/05/14 09:31:28;;;;;;;24.37;5.20;;;51.10;1.00;;;;;;5024549;28;20471;-61
2022/05/14 09:34:05;;;;;;;24.23;3.70;;;51.20;1.00;;;;;;5025090;28;20447;-62
2022/05/14 09:36:35;;;;;;;20.30;2.70;;;51.20;1.00;;;;;;5023423;28;20466;-60
2022/05/14 09:39:06;;;;;;;20.43;2.83;;;51.20;1.00;;;;;;5024832;28;20490;-61
2022/05/14 09:41:40;;;;;;;21.00;3.00;;;51.10;1.00;;;;;;5021794;28;20493;-60
2022/05/14 09:44:13;;;;;;;20.73;3.13;;;50.90;1.00;;;;;;5022011;28;20548;-61
2022/05/14 09:46:39;;;;;;;21.93;2.83;;;50.60;1.00;;;;;;5020265;28;20463;-61
2022/05/14 09:49:10;;;;;;;20.90;3.07;;;50.30;1.00;;;;;;5024087;28;20470;-63
2022/05/14 09:51:47;;;;;;;21.37;3.03;;;49.70;1.00;;;;;;5026632;28;20451;-61
2022/05/14 09:54:21;;;;;;;21.67;3.60;;;48.50;1.00;;;;;;5020487;28;20465;-61
2022/05/14 09:57:14;;;;;;;23.30;3.00;;;46.20;1.00;;;;;;5026581;28;20509;-63
2022/05/14 10:00:00;;;;;;;23.17;3.53;;;44.00;1.00;;;;;;5025817;28;20937;-62
2022/05/14 10:02:35;;;;;;;24.17;3.37;;;42.20;1.00;;;;;;5024512;28;20870;-61
2022/05/14 10:05:12;;;;;;;23.83;3.10;;;40.50;1.00;;;;;;5025232;28;20725;-60
2022/05/14 10:07:44;;;;;;;23.40;3.37;;;39.20;1.00;;;;;;5026177;28;20971;-63
2022/05/14 10:10:19;;;;;;;23.83;3.13;;;38.20;1.00;;;;;;5020578;28;20466;-63
2022/05/14 10:12:51;;;;;;;23.07;3.20;;;37.30;1.00;;;;;;5023049;28;20469;-63
2022/05/14 10:15:33;;;;;;;24.80;3.70;;;36.50;1.00;;;;;;5023431;28;21125;-64
2022/05/14 10:18:06;;;;;;;25.60;4.37;;;35.60;1.00;;;;;;5022105;28;20570;-62
2022/05/14 10:20:43;;;;;;;24.90;4.50;;;34.80;1.00;;;;;;5021454;28;20497;-62
2022/05/14 10:26:46;;;;;;;25.67;4.17;;;33.60;1.00;;;;;;5012200;28;20890;-62
2022/05/14 10:29:37;;;;;;;25.43;3.63;;;32.90;1.00;;;;;;5021818;28;20452;-62
2022/05/14 10:32:07;;;;;;;26.10;3.70;;;32.30;1.00;;;;;;5021070;28;21122;-62
2022/05/14 10:34:41;;;;;;;27.00;5.03;;;31.70;1.00;;;;;;5024739;28;20467;-62
2022/05/14 10:37:21;;;;;;;29.13;4.00;;;31.20;1.00;;;;;;5024249;28;20877;-63
2022/05/14 10:39:56;;;;;;;25.53;3.13;;;30.90;1.00;;;;;;5025332;28;20944;-62
2022/05/14 10:42:40;;;;;;;27.10;5.10;;;30.60;1.00;;;;;;5015304;28;20475;-62
2022/05/14 10:45:11;;;;;;;26.83;4.77;;;30.30;1.00;;;;;;5022124;28;20476;-61
2022/05/14 10:47:43;;;;;;;25.00;4.00;;;30.00;1.00;;;;;;5019655;28;20471;-62
2022/05/14 10:50:15;;;;;;;26.47;5.10;;;29.80;1.00;;;;;;5024233;28;20450;-63
2022/05/14 10:52:45;;;;;;;26.63;3.90;;;29.60;1.00;;;;;;5028768;28;21004;-62
2022/05/14 10:55:18;;;;;;;25.10;4.40;;;29.30;1.00;;;;;;5026457;28;20936;-59
2022/05/14 10:57:49;;;;;;;26.20;4.00;;;29.10;1.00;;;;;;5024486;28;20479;-62
2022/05/14 11:00:21;;;;;;;25.10;3.67;;;29.10;1.00;;;;;;5026997;28;20483;-61
2022/05/14 11:02:58;;;;;;;30.23;3.87;;;29.00;1.00;;;;;;5030735;28;20455;-62
2022/05/14 11:05:30;;;;;;;26.83;4.30;;;28.90;1.00;;;;;;5027163;28;20562;-61
2022/05/14 11:08:13;;;;;;;25.63;4.00;;;28.90;1.00;;;;;;5020986;28;20996;-61
2022/05/14 11:10:41;;;;;;;28.47;5.00;;;28.80;1.00;;;;;;5023141;28;20455;-61
2022/05/14 11:13:14;;;;;;;26.87;4.73;;;28.70;1.00;;;;;;5020094;28;20467;-61
2022/05/14 11:15:43;;;;;;;26.63;4.10;;;28.70;1.00;;;;;;5022749;28;20462;-60
2022/05/14 11:18:12;;;;;;;29.30;3.80;;;28.50;1.00;;;;;;5025601;28;20471;-61
2022/05/14 11:20:51;;;;;;;27.07;3.80;;;28.10;1.00;;;;;;5026273;28;20478;-62
2022/05/14 11:23:20;;;;;;;26.67;4.30;;;28.00;1.10;;;;;;5024933;28;20458;-62
2022/05/14 11:25:46;;;;;;;26.47;4.33;;;27.90;1.70;;;;;;5025322;28;20469;-62
2022/05/14 11:28:27;;;;;;;26.10;4.10;;;27.80;1.00;;;;;;5026096;28;21095;-61
2022/05/14 11:30:56;;;;;;;27.10;4.90;;;27.60;1.00;;;;;;5029192;28;20987;-62
2022/05/14 11:33:30;;;;;;;26.13;3.73;;;27.30;1.00;;;;;;5025547;28;20451;-62
2022/05/14 11:36:00;;;;;;;25.10;3.40;;;27.10;2.60;;;;;;5019825;28;20548;-64
2022/05/14 11:38:36;;;;;;;25.13;3.67;;;27.00;5.00;;;;;;5028703;28;20859;-60
2022/05/14 11:41:06;;;;;;;26.83;3.87;;;26.90;4.70;;;;;;5029366;28;20504;-62
2022/05/14 11:43:36;;;;;;;24.93;3.47;;;26.90;5.10;;;;;;5026402;28;20539;-61
2022/05/14 11:46:19;;;;;;;30.17;4.13;;;26.80;5.30;;;;;;5028614;28;20545;-63
2022/05/14 11:48:50;;;;;;;31.47;4.77;;;26.70;6.00;;;;;;5023703;28;20491;-62
2022/05/14 11:51:28;;;;;;;26.37;4.10;;;26.80;4.60;;;;;;5027754;28;20455;-61
2022/05/14 11:54:03;;;;;;;27.67;3.90;;;26.70;4.40;;;;;;5023237;28;20470;-63
2022/05/14 11:56:36;;;;;;;27.47;3.77;;;26.50;3.40;;;;;;5027748;28;20465;-64
2022/05/14 11:59:07;;;;;;;27.80;3.70;;;26.40;4.30;;;;;;5024422;28;20512;-64
2022/05/14 12:01:39;;;;;;;27.80;3.80;;;26.30;3.80;;;;;;5023490;28;20593;-65
2022/05/14 12:04:13;;;;;;;27.90;4.57;;;26.30;2.90;;;;;;5024300;28;20470;-61
2022/05/14 12:07:02;;;;;;;27.43;4.43;;;26.20;3.90;;;;;;5027803;28;20491;-61
2022/05/14 12:09:43;;;;;;;27.00;4.30;;;26.10;5.20;;;;;;5026843;28;20459;-63
2022/05/14 12:12:15;;;;;;;28.37;4.30;;;26.00;6.70;;;;;;5027645;28;20451;-61
2022/05/14 12:14:42;;;;;;;26.80;5.27;;;26.00;6.70;;;;;;5026392;28;20455;-60
2022/05/14 12:17:15;;;;;;;25.60;3.73;;;25.90;6.30;;;;;;5022345;28;20470;-61
2022/05/14 12:19:43;;;;;;;28.20;4.20;;;25.80;6.60;;;;;;5028312;28;20459;-62
2022/05/14 12:22:20;;;;;;;27.93;4.23;;;25.70;5.60;;;;;;5027349;28;20510;-61
2022/05/14 12:24:57;;;;;;;28.23;3.60;;;25.70;5.30;;;;;;5028888;28;20462;-62
2022/05/14 12:27:24;;;;;;;28.23;4.63;;;25.70;5.70;;;;;;5026590;28;20910;-58
2022/05/14 12:29:56;;;;;;;28.67;4.40;;;25.70;6.00;;;;;;5027565;28;20533;-59
2022/05/14 12:35:19;;;;;;;25.80;3.43;;;25.60;6.30;;;;;;5023384;28;20504;-58
2022/05/14 12:37:47;;;;;;;26.67;3.97;;;25.60;6.00;;;;;;5023938;28;20512;-59
2022/05/14 12:40:26;;;;;;;26.80;4.13;;;25.60;5.10;;;;;;5021944;28;20478;-58
2022/05/14 12:42:54;;;;;;;26.77;3.90;;;25.50;6.30;;;;;;5026194;28;20478;-58
2022/05/14 12:45:32;;;;;;;32.43;5.93;;;25.50;7.00;;;;;;5027027;28;20462;-59
2022/05/14 12:48:00;;;;;;;28.63;4.60;;;25.50;6.10;;;;;;5025939;28;20475;-61
2022/05/14 12:50:30;;;;;;;51.67;12.50;;;25.40;6.30;;;;;;5026312;28;20997;-59
2022/05/14 12:52:59;;;;;;;26.47;3.63;;;25.30;7.30;;;;;;5024847;28;20452;-60
2022/05/14 12:55:28;;;;;;;27.73;3.77;;;25.30;7.70;;;;;;5027495;28;20466;-60
2022/05/14 12:57:56;;;;;;;42.57;9.03;;;25.30;8.60;;;;;;5026249;28;20533;-59
2022/05/14 13:00:24;;;;;;;28.20;6.13;;;25.30;8.70;;;;;;5023479;28;20470;-58
2022/05/14 13:02:54;;;;;;;27.87;4.07;;;25.30;8.10;;;;;;5025380;28;20967;-59
2022/05/14 13:05:25;;;;;;;27.13;3.80;;;25.20;7.50;;;;;;5027283;28;20463;-60
2022/05/14 13:07:54;;;;;;;27.67;4.50;;;25.20;6.50;;;;;;5029191;28;20479;-60
2022/05/14 13:10:23;;;;;;;29.00;4.30;;;25.20;7.70;;;;;;5028551;28;20459;-60
2022/05/14 13:12:55;;;;;;;26.80;3.70;;;25.20;7.50;;;;;;5025357;28;20459;-60
2022/05/14 13:15:32;;;;;;;30.70;4.47;;;25.20;7.10;;;;;;5031359;28;20554;-59
2022/05/14 13:17:59;;;;;;;29.60;4.20;;;25.30;6.10;;;;;;5028345;28;21302;-61